Spearfish, SD

10:41 PM MDT on October 25, 2014 (GMT -0600)
TMWC | Change Station
CLOSE
Current Station
Personal Weather Station
Location: Spearfish, SD
Elevation: 3687 ft
Nearby Weather Stations

Elev 3687 ft 44.49 °N, 103.87 °W | Updated 1 second ago

Clear
Clear
51.8 °F
Feels Like 51.8 °F
N
2.3
Wind Variable Wind from ENE
Gusts 2.3 mph

Today
High -- | Low -- °F
--% Chance of Precip.
Yesterday
High -- | Low -- °F
Precip. -- in
7:23 AM 5:54 PM
Waxing Crescent, 6% visible
Pressure 29.79 in
Visibility 10.0 miles
Clouds Clear
Dew Point 38 °F
Humidity 58%
Rainfall 0.00 in
Snow Depth Not available.
UV 0 out of 12
Pollen 2.10 out of 12
Air Quality Not available.
Flu Activity Sporadic
METAR KSPF 260435Z AUTO 20013G22KT 10SM CLR 20/00 A2979 RMK AO2

More Conditions Fewer Conditions

Pressure 29.79 in
Visibility 10.0 miles
Clouds Clear
Dew Point 38 °F
Humidity 58%
Rainfall 0.00 in
Snow Depth Not available.
UV 0 out of 12
Pollen 2.10 out of 12
Air Quality Not available.
Flu Activity Sporadic
METAR KSPF 260435Z AUTO 20013G22KT 10SM CLR 20/00 A2979 RMK AO2

More Conditions Fewer Conditions

10-Day Weather Forecast

Almanac

Astronomy

Oct. 25, 2014 Rise Set
Actual Time 7:23 AM MDT 5:54 PM MDT
Civil Twilight 6:53 AM MDT 6:24 PM MDT
Nautical Twilight 6:19 AM MDT 6:58 PM MDT
Astronomical Twilight 5:45 AM MDT 7:32 PM MDT
Moon 9:07 AM MDT (10/25) 7:16 PM MDT (10/25)
Length of Visible Light 11h 30m
Length of Day
10h 31m
Tomorrow will be 2m 52s shorter.
Waxing Crescent, 6% of the Moon is Illuminated
Oct 26
Waxing Crescent
Oct 30
First Quarter
Nov 6
Full
Nov 14
Last Quarter
Nov 22
New

Yesterday's Extremes

State Highs State Lows

Community

WunderPhotos

Upload Photos

1,765,111 photos uploaded!

Nearby

Snow Depth

Station Depth Elevation
Blind Park 0 in 6890 ft

Earthquake Activity

City Distance Mag. Time & Date
No recent earthquake activity has been reported nearby.
Minimum magnitude displayed is 2.5.

Coastal Water Temperatures

Place Temperature
No Stations Reporting

Nearby Weather Stations